createdAt,value
2022-10-03T00:03:33.830Z,0.40
2022-10-03T00:08:47.738Z,0.45
2022-10-03T00:14:19.044Z,0.50
2022-10-03T00:19:48.491Z,0.30
2022-10-03T00:24:59.041Z,0.30
2022-10-03T00:30:13.400Z,0.40
2022-10-03T00:35:44.760Z,0.40
2022-10-03T00:40:55.775Z,0.50
2022-10-03T00:46:06.714Z,0.70
2022-10-03T00:51:25.850Z,0.75
2022-10-03T00:56:45.922Z,0.50
2022-10-03T01:01:50.031Z,0.77
2022-10-03T01:07:13.549Z,0.65
2022-10-03T01:12:33.706Z,0.65
2022-10-03T01:17:48.009Z,0.77
2022-10-03T01:23:07.714Z,0.90
2022-10-03T01:34:00.871Z,0.90
2022-10-03T01:39:26.537Z,1.02
2022-10-03T01:44:30.873Z,1.00
2022-10-03T01:50:13.052Z,0.70
2022-10-03T01:55:28.250Z,0.90
2022-10-03T02:00:56.656Z,1.00
2022-10-03T02:06:14.925Z,0.82
2022-10-03T02:11:40.496Z,0.70
2022-10-03T02:16:58.255Z,0.80
2022-10-03T02:22:00.605Z,0.88
2022-10-03T02:27:11.823Z,0.70
2022-10-03T02:32:46.715Z,1.00
2022-10-03T02:38:11.672Z,0.90
2022-10-03T02:43:25.573Z,0.93
2022-10-03T02:48:52.094Z,1.10
2022-10-03T02:54:05.611Z,0.80
2022-10-03T02:59:15.474Z,0.90
2022-10-03T03:04:52.201Z,1.45
2022-10-03T03:10:09.160Z,1.10
2022-10-03T03:15:28.929Z,0.90
2022-10-03T03:20:39.048Z,1.05
2022-10-03T03:25:52.519Z,1.13
2022-10-03T03:31:03.775Z,0.95
2022-10-03T03:36:24.397Z,0.90
2022-10-03T03:41:51.028Z,1.10
2022-10-03T03:47:19.646Z,1.08
2022-10-03T03:52:46.391Z,1.13
2022-10-03T03:58:07.182Z,1.30
2022-10-03T04:03:30.822Z,1.50
2022-10-03T04:08:41.525Z,1.20
2022-10-03T04:14:21.855Z,0.98
2022-10-03T04:24:58.563Z,0.95
2022-10-03T04:30:11.598Z,1.10
2022-10-03T04:35:28.463Z,1.40
2022-10-03T04:40:47.967Z,1.08
2022-10-03T04:51:12.777Z,1.08
2022-10-03T04:56:23.711Z,1.05
2022-10-03T05:01:50.681Z,1.35
2022-10-03T05:07:13.989Z,1.40
2022-10-03T05:12:20.944Z,1.60
2022-10-03T05:17:42.478Z,1.15
2022-10-03T05:22:49.816Z,1.13
2022-10-03T05:28:01.331Z,1.48
2022-10-03T05:33:10.345Z,1.27
2022-10-03T05:38:34.865Z,1.35
2022-10-03T05:43:58.635Z,0.85
2022-10-03T05:49:19.300Z,1.42
2022-10-03T05:54:33.159Z,1.10
2022-10-03T05:59:49.319Z,1.15
2022-10-03T06:05:02.983Z,1.13
2022-10-03T06:10:14.384Z,1.30
2022-10-03T06:15:54.672Z,1.33
2022-10-03T06:26:40.098Z,1.52
2022-10-03T06:32:06.920Z,1.33
2022-10-03T06:37:46.262Z,1.27
2022-10-03T06:43:16.296Z,1.27
2022-10-03T06:53:34.385Z,1.00
2022-10-03T06:58:57.719Z,0.95
2022-10-03T07:04:24.144Z,1.77
2022-10-03T07:09:29.529Z,1.00
2022-10-03T07:14:41.802Z,1.10
2022-10-03T07:20:04.856Z,1.35
2022-10-03T07:25:21.945Z,1.00
2022-10-03T07:30:25.778Z,1.10
2022-10-03T07:35:58.506Z,1.17
2022-10-03T07:41:02.850Z,1.30
2022-10-03T07:46:36.468Z,1.40
2022-10-03T07:52:16.343Z,1.20
2022-10-03T07:57:38.117Z,0.93
2022-10-03T08:02:58.008Z,1.23
2022-10-03T08:08:25.510Z,0.73
2022-10-03T08:13:55.120Z,1.00
2022-10-03T08:19:18.664Z,0.75
2022-10-03T08:24:45.466Z,0.80
2022-10-03T08:30:17.764Z,0.82
2022-10-03T08:35:50.278Z,0.80
2022-10-03T08:41:10.126Z,1.25
2022-10-03T08:46:39.778Z,0.80
2022-10-03T08:52:21.388Z,1.00
2022-10-03T08:57:45.364Z,0.77
2022-10-03T09:03:43.037Z,0.88
2022-10-03T09:08:57.278Z,0.50
2022-10-03T09:14:11.002Z,1.05
2022-10-03T09:19:38.653Z,0.50
2022-10-03T09:25:02.541Z,0.50
2022-10-03T09:30:04.358Z,0.70
2022-10-03T09:35:33.499Z,0.40
2022-10-03T09:41:12.845Z,0.67
2022-10-03T09:47:18.427Z,0.60
2022-10-03T09:52:33.220Z,0.57
2022-10-03T09:57:46.801Z,0.70
2022-10-03T10:03:06.655Z,0.60
2022-10-03T10:08:26.505Z,0.50
2022-10-03T10:13:49.738Z,0.50
2022-10-03T10:19:14.154Z,0.52
2022-10-03T10:24:36.676Z,0.40
2022-10-03T10:29:53.446Z,0.30
2022-10-03T10:35:23.277Z,1.00
2022-10-03T10:40:43.948Z,0.40
2022-10-03T10:46:00.816Z,0.50
2022-10-03T10:51:42.622Z,0.47
2022-10-03T10:57:07.954Z,0.35
2022-10-03T11:02:18.491Z,0.63
2022-10-03T11:07:45.789Z,0.50
2022-10-03T11:12:53.174Z,0.50
2022-10-03T11:18:22.614Z,0.50
2022-10-03T11:23:39.927Z,0.50
2022-10-03T11:29:06.593Z,0.40
2022-10-03T11:34:29.925Z,0.40
2022-10-03T11:39:41.997Z,0.50
2022-10-03T11:45:01.145Z,0.55
2022-10-03T11:50:20.995Z,0.60
2022-10-03T11:55:48.331Z,0.50
2022-10-03T12:01:02.003Z,0.38
2022-10-03T12:06:33.052Z,0.40
2022-10-03T12:11:44.326Z,0.40
2022-10-03T12:16:58.461Z,0.32
2022-10-03T12:22:21.342Z,0.50
2022-10-03T12:27:41.680Z,0.50
2022-10-03T12:32:52.234Z,0.47
2022-10-03T12:38:34.638Z,0.40
2022-10-03T12:44:08.566Z,0.40
2022-10-03T12:49:26.350Z,0.30
2022-10-03T12:54:34.511Z,0.30
2022-10-03T12:59:42.224Z,0.40
2022-10-03T13:04:59.508Z,0.40
2022-10-03T13:10:04.133Z,0.40
2022-10-03T13:15:43.121Z,0.40
2022-10-03T13:20:59.869Z,0.40
2022-10-03T13:26:31.595Z,0.40
2022-10-03T13:31:35.324Z,1.08
2022-10-03T13:36:50.165Z,0.80
2022-10-03T13:42:32.143Z,0.60
2022-10-03T13:48:13.708Z,0.30
2022-10-03T13:53:40.255Z,0.30
2022-10-03T13:59:17.685Z,0.40
2022-10-03T14:04:35.321Z,0.50
2022-10-03T14:09:39.369Z,0.40
2022-10-03T14:14:53.497Z,0.30
2022-10-03T14:20:27.183Z,0.30
2022-10-03T14:25:39.056Z,0.38
2022-10-03T14:31:05.603Z,0.47
2022-10-03T14:36:19.942Z,2.30
2022-10-03T14:41:30.613Z,1.60
2022-10-03T14:46:39.917Z,0.38
2022-10-03T14:51:55.016Z,0.65
2022-10-03T14:56:58.839Z,0.43
2022-10-03T15:02:20.364Z,0.73
2022-10-03T15:07:36.530Z,0.70
2022-10-03T15:12:41.371Z,0.40
2022-10-03T15:17:52.746Z,0.50
2022-10-03T15:22:58.421Z,0.98
2022-10-03T15:28:06.336Z,0.50
2022-10-03T15:33:34.648Z,0.60
2022-10-03T15:38:41.886Z,0.73
2022-10-03T15:43:44.124Z,0.50
2022-10-03T15:48:51.154Z,0.68
2022-10-03T15:53:58.412Z,0.63
2022-10-03T15:59:06.544Z,0.75
2022-10-03T16:04:19.764Z,0.80
2022-10-03T16:09:39.258Z,0.70
2022-10-03T16:14:53.351Z,0.63
2022-10-03T16:19:58.804Z,0.98
2022-10-03T16:25:16.217Z,0.75
2022-10-03T16:30:22.346Z,0.50
2022-10-03T16:35:31.298Z,0.60
2022-10-03T16:40:37.873Z,0.80
2022-10-03T16:45:47.292Z,0.68
2022-10-03T16:50:53.476Z,0.98
2022-10-03T16:56:03.585Z,0.90
2022-10-03T17:01:50.022Z,0.70
2022-10-03T17:06:57.134Z,0.70
2022-10-03T17:12:00.904Z,1.08
2022-10-03T17:17:25.645Z,0.80
2022-10-03T17:22:37.893Z,1.42
2022-10-03T17:27:41.817Z,1.50
2022-10-03T17:32:45.479Z,1.23
2022-10-03T17:37:53.916Z,0.85
2022-10-03T17:43:05.863Z,0.90
2022-10-03T17:48:23.087Z,0.52
2022-10-03T17:53:29.372Z,1.15
2022-10-03T17:58:33.016Z,1.13
2022-10-03T18:03:44.781Z,2.88
2022-10-03T18:08:50.424Z,0.80
2022-10-03T18:14:35.710Z,1.00
2022-10-03T18:19:40.346Z,8.48
2022-10-03T18:25:32.589Z,5.05
2022-10-03T18:30:45.577Z,6.18
2022-10-03T18:35:49.694Z,2.50
2022-10-03T18:40:58.147Z,1.88
2022-10-03T18:46:15.417Z,1.23
2022-10-03T18:51:31.388Z,0.88
2022-10-03T18:56:34.233Z,1.00
2022-10-03T19:01:45.324Z,1.10
2022-10-03T19:06:51.888Z,1.00
2022-10-03T19:12:12.186Z,0.77
2022-10-03T19:17:36.089Z,1.05
2022-10-03T19:22:40.835Z,0.80
2022-10-03T19:27:52.306Z,0.88
2022-10-03T19:32:59.134Z,0.93
2022-10-03T19:38:06.250Z,0.90
2022-10-03T19:43:49.494Z,0.70
2022-10-03T19:49:00.233Z,1.00
2022-10-03T19:54:27.737Z,1.08
2022-10-03T20:00:00.637Z,0.90
2022-10-03T20:05:02.630Z,0.70
2022-10-03T20:10:32.661Z,0.80
2022-10-03T20:20:41.100Z,0.80
2022-10-03T20:26:00.276Z,1.00
2022-10-03T20:31:02.105Z,0.70
2022-10-03T20:36:13.786Z,1.10
2022-10-03T20:41:52.456Z,0.80
2022-10-03T20:47:15.833Z,0.90
2022-10-03T20:52:21.328Z,0.80
2022-10-03T20:57:44.240Z,0.63
2022-10-03T21:02:59.370Z,0.80
2022-10-03T21:08:14.704Z,0.95
2022-10-03T21:13:36.146Z,0.90
2022-10-03T21:18:41.101Z,0.90
2022-10-03T21:23:57.509Z,0.65
2022-10-03T21:29:24.512Z,0.90
2022-10-03T21:34:46.508Z,0.98
2022-10-03T21:39:54.602Z,0.80
2022-10-03T21:45:11.485Z,0.70
2022-10-03T21:50:37.416Z,0.57
2022-10-03T21:56:12.766Z,0.93
2022-10-03T22:01:17.101Z,0.82
2022-10-03T22:06:22.298Z,0.60
2022-10-03T22:11:30.672Z,0.77
2022-10-03T22:16:39.865Z,0.93
2022-10-03T22:32:34.838Z,0.80
2022-10-03T22:37:37.611Z,0.70
2022-10-03T22:42:44.514Z,0.93
2022-10-03T22:47:51.969Z,0.63
2022-10-03T22:52:54.251Z,0.88
2022-10-03T22:57:57.283Z,1.15
2022-10-03T23:03:07.314Z,1.00
2022-10-03T23:08:46.753Z,1.00
2022-10-03T23:13:49.733Z,0.80
2022-10-03T23:19:22.765Z,0.70
2022-10-03T23:24:46.630Z,0.50
2022-10-03T23:30:11.461Z,0.60
2022-10-03T23:35:20.433Z,0.50
2022-10-03T23:40:45.387Z,0.70
2022-10-03T23:45:50.598Z,0.70
2022-10-03T23:51:06.058Z,0.70
2022-10-03T23:56:26.662Z,0.70
